Time;durP1;ratioP1;P1;durP2;ratioP2;P2;SDS_P1;SDS_P2;PMS_P1;PMS_P2;Temp;Humidity;BMP_temperature;BMP_pressure;BME280_temperature;BME280_humidity;BME280_pressure;Samples;Min_cycle;Max_cycle;Signal;HPM_P1;HPM_P2
2023/08/24 00:00:55;;;;;;;3.20;1.98;;;17.90;99.90;;;;;;4947141;29;20031;-87
2023/08/24 00:03:22;;;;;;;5.60;1.77;;;17.90;99.90;;;;;;4945798;28;20031;-87
2023/08/24 00:05:49;;;;;;;3.53;2.08;;;17.90;99.90;;;;;;4945861;29;20031;-87
2023/08/24 00:08:14;;;;;;;6.72;2.08;;;17.80;99.90;;;;;;4945457;28;20357;-87
2023/08/24 00:10:48;;;;;;;4.43;2.28;;;17.80;99.90;;;;;;4945536;28;20145;-86
2023/08/24 00:13:14;;;;;;;1.85;1.67;;;17.70;99.90;;;;;;4947833;29;20039;-87
2023/08/24 00:15:40;;;;;;;4.40;1.90;;;17.70;99.90;;;;;;4946401;29;20097;-87
2023/08/24 00:18:06;;;;;;;4.32;2.00;;;17.70;99.90;;;;;;4945530;28;20038;-87
2023/08/24 00:20:33;;;;;;;7.07;2.10;;;17.70;99.90;;;;;;4946502;28;20038;-87
2023/08/24 00:22:59;;;;;;;4.53;2.28;;;17.70;99.90;;;;;;4946936;28;20034;-87
2023/08/24 00:25:25;;;;;;;5.00;1.67;;;17.70;99.90;;;;;;4943885;29;20028;-86
2023/08/24 00:27:55;;;;;;;13.70;2.22;;;17.70;99.90;;;;;;4941584;28;20039;-86
2023/08/24 00:30:21;;;;;;;11.25;2.88;;;17.70;99.90;;;;;;4943636;29;20291;-87
2023/08/24 00:32:47;;;;;;;11.43;2.28;;;17.70;99.90;;;;;;4943117;28;20306;-86
2023/08/24 00:35:12;;;;;;;6.80;2.47;;;17.70;99.90;;;;;;4941207;28;20493;-86
2023/08/24 00:37:38;;;;;;;5.60;2.03;;;17.70;99.90;;;;;;4945560;28;20035;-86
2023/08/24 00:40:09;;;;;;;9.48;2.25;;;17.80;99.90;;;;;;4944226;28;20274;-86
2023/08/24 00:42:39;;;;;;;4.03;2.22;;;17.90;99.90;;;;;;4935721;29;20119;-85
2023/08/24 00:45:05;;;;;;;7.78;2.72;;;17.90;99.90;;;;;;4941010;28;20512;-85
2023/08/24 00:47:32;;;;;;;12.02;3.03;;;18.00;99.90;;;;;;4928584;29;20063;-88
2023/08/24 00:49:59;;;;;;;3.00;2.13;;;18.10;99.90;;;;;;4946652;29;20390;-87
2023/08/24 00:52:28;;;;;;;15.20;2.70;;;18.10;99.90;;;;;;4940069;28;20078;-86
2023/08/24 00:54:54;;;;;;;12.63;1.73;;;18.30;99.90;;;;;;4941955;29;20031;-86
2023/08/24 00:57:20;;;;;;;7.30;2.55;;;18.40;99.90;;;;;;4940416;29;20083;-85
2023/08/24 00:59:46;;;;;;;9.98;2.13;;;18.50;99.90;;;;;;4944497;29;20113;-85
2023/08/24 01:02:12;;;;;;;4.88;2.05;;;18.60;99.90;;;;;;4943233;29;20358;-87
2023/08/24 01:04:40;;;;;;;6.22;2.03;;;18.70;99.90;;;;;;4942167;29;20031;-85
2023/08/24 01:07:06;;;;;;;3.90;1.55;;;18.70;99.90;;;;;;4942384;28;20110;-86
2023/08/24 01:09:32;;;;;;;6.85;2.28;;;18.70;99.90;;;;;;4927191;29;20031;-86
2023/08/24 01:12:06;;;;;;;15.13;2.90;;;18.80;99.90;;;;;;4939142;28;20035;-85
2023/08/24 01:14:54;;;;;;;7.35;1.73;;;18.80;99.90;;;;;;4945394;29;20512;-87
2023/08/24 01:17:24;;;;;;;4.63;2.67;;;18.90;99.90;;;;;;4940517;28;20382;-86
2023/08/24 01:19:50;;;;;;;7.40;2.05;;;18.90;99.90;;;;;;4940659;28;20492;-87
2023/08/24 01:22:34;;;;;;;11.80;1.95;;;19.00;99.90;;;;;;4941141;28;20037;-87
2023/08/24 01:25:10;;;;;;;4.30;2.20;;;19.00;99.90;;;;;;4938144;29;20050;-86
2023/08/24 01:27:40;;;;;;;8.35;1.98;;;19.00;99.90;;;;;;4938895;28;20023;-85
2023/08/24 01:30:08;;;;;;;7.60;1.95;;;19.00;99.90;;;;;;4946238;29;20110;-87
2023/08/24 01:32:35;;;;;;;8.75;2.40;;;19.00;99.90;;;;;;4944315;28;20046;-85
2023/08/24 01:35:09;;;;;;;9.05;1.83;;;19.00;99.90;;;;;;4939631;29;20020;-86
2023/08/24 01:37:36;;;;;;;6.07;1.83;;;19.00;99.90;;;;;;4942490;29;20093;-85
2023/08/24 01:40:23;;;;;;;5.60;2.35;;;19.00;99.90;;;;;;4945875;29;20063;-88
2023/08/24 01:42:56;;;;;;;2.95;2.00;;;19.00;99.90;;;;;;4946040;28;20106;-87
2023/08/24 01:45:24;;;;;;;9.13;1.90;;;18.90;99.90;;;;;;4942744;29;20027;-86
2023/08/24 01:47:52;;;;;;;7.35;2.08;;;18.90;99.90;;;;;;4943264;28;20066;-85
2023/08/24 01:50:18;;;;;;;14.23;2.55;;;18.90;99.90;;;;;;4938420;28;20492;-87
2023/08/24 01:52:47;;;;;;;11.50;2.47;;;18.90;99.90;;;;;;4925713;29;20389;-85
2023/08/24 01:55:15;;;;;;;7.97;2.15;;;18.90;99.90;;;;;;4945765;28;20125;-86
2023/08/24 01:57:40;;;;;;;4.03;1.95;;;18.90;99.90;;;;;;4944346;28;20067;-87
2023/08/24 02:00:10;;;;;;;13.77;2.97;;;19.00;99.90;;;;;;4937035;28;20058;-85
2023/08/24 02:02:36;;;;;;;8.27;2.55;;;19.00;99.90;;;;;;4943661;28;20031;-86
2023/08/24 02:05:05;;;;;;;11.82;2.83;;;19.00;99.90;;;;;;4942777;28;20042;-85
2023/08/24 02:07:31;;;;;;;7.32;2.10;;;19.00;99.90;;;;;;4939806;29;20524;-85
2023/08/24 02:09:57;;;;;;;16.02;2.35;;;19.00;99.90;;;;;;4939664;28;20050;-88
2023/08/24 02:12:22;;;;;;;8.27;2.47;;;19.00;99.90;;;;;;4941796;29;20393;-87
2023/08/24 02:14:48;;;;;;;4.18;2.33;;;18.90;99.90;;;;;;4942368;29;20028;-86
2023/08/24 02:17:14;;;;;;;6.70;2.55;;;19.00;99.90;;;;;;4935611;29;20086;-89
2023/08/24 02:19:41;;;;;;;9.93;2.60;;;19.00;99.90;;;;;;4942870;29;20047;-88
2023/08/24 02:22:08;;;;;;;7.88;2.67;;;19.00;99.90;;;;;;4946369;29;20036;-85
2023/08/24 02:24:33;;;;;;;6.18;1.95;;;19.00;99.90;;;;;;4943411;28;20035;-89
2023/08/24 02:26:59;;;;;;;10.60;2.63;;;19.00;99.90;;;;;;4940872;28;20032;-90
2023/08/24 02:29:25;;;;;;;7.82;2.50;;;19.00;99.90;;;;;;4935841;29;20023;-85
2023/08/24 02:31:51;;;;;;;12.48;2.65;;;19.00;99.90;;;;;;4939772;29;20437;-88
2023/08/24 02:34:17;;;;;;;8.18;2.65;;;19.00;99.90;;;;;;4941374;28;20023;-89
2023/08/24 02:36:43;;;;;;;7.25;3.00;;;18.90;99.90;;;;;;4940827;28;20031;-89
2023/08/24 02:39:08;;;;;;;10.07;2.40;;;19.00;99.90;;;;;;4938767;29;20050;-88
2023/08/24 02:41:35;;;;;;;12.38;2.35;;;19.00;99.90;;;;;;4934990;28;20066;-85
2023/08/24 02:44:01;;;;;;;7.40;2.38;;;19.00;99.90;;;;;;4936634;29;20027;-87
2023/08/24 02:46:29;;;;;;;5.57;2.50;;;19.00;99.90;;;;;;4940573;28;20082;-86
2023/08/24 02:48:55;;;;;;;4.28;2.10;;;19.00;99.90;;;;;;4944898;29;20031;-86
2023/08/24 02:51:24;;;;;;;2.55;1.77;;;18.90;99.90;;;;;;4939705;29;20481;-86
2023/08/24 02:53:50;;;;;;;2.35;1.50;;;18.90;99.90;;;;;;4945714;28;20116;-86
2023/08/24 02:56:16;;;;;;;3.22;2.08;;;18.80;99.90;;;;;;4941852;28;20053;-87
2023/08/24 02:58:42;;;;;;;6.18;2.15;;;18.80;99.90;;;;;;4934203;29;20473;-86
2023/08/24 03:01:08;;;;;;;6.57;2.67;;;18.80;99.90;;;;;;4932736;29;20042;-86
2023/08/24 03:03:34;;;;;;;6.68;2.40;;;18.80;99.90;;;;;;4936614;28;20397;-86
2023/08/24 03:06:02;;;;;;;3.78;1.95;;;18.90;99.90;;;;;;4945186;28;20034;-86
2023/08/24 03:08:35;;;;;;;14.75;2.78;;;18.80;99.90;;;;;;4942544;29;20027;-87
2023/08/24 03:11:02;;;;;;;5.18;2.38;;;18.80;99.90;;;;;;4944723;28;20031;-86
2023/08/24 03:13:30;;;;;;;2.28;1.90;;;18.80;99.90;;;;;;4943122;29;20051;-86
2023/08/24 03:15:56;;;;;;;5.43;2.40;;;18.70;99.90;;;;;;4946170;29;20311;-86
2023/08/24 03:18:22;;;;;;;4.32;1.83;;;18.70;99.90;;;;;;4947049;28;20528;-86
2023/08/24 03:20:48;;;;;;;7.80;2.92;;;18.60;99.90;;;;;;4947860;28;20039;-86
2023/08/24 03:23:15;;;;;;;4.20;2.28;;;18.50;99.90;;;;;;4938413;29;20606;-86
2023/08/24 03:25:41;;;;;;;3.08;1.77;;;18.50;99.90;;;;;;4943038;28;20082;-86
2023/08/24 03:28:08;;;;;;;3.90;2.15;;;18.40;99.90;;;;;;4946687;29;20118;-86
2023/08/24 03:30:36;;;;;;;3.50;2.25;;;18.30;99.90;;;;;;4939266;29;20070;-86
2023/08/24 03:33:07;;;;;;;6.78;2.72;;;18.30;99.90;;;;;;4946700;28;20360;-86
2023/08/24 03:35:33;;;;;;;16.80;4.53;;;18.20;99.90;;;;;;4940346;28;20491;-86
2023/08/24 03:37:59;;;;;;;8.35;2.30;;;18.10;99.90;;;;;;4947576;28;20114;-86
2023/08/24 03:40:25;;;;;;;3.53;2.40;;;18.00;99.90;;;;;;4940400;28;20054;-87
2023/08/24 03:42:53;;;;;;;9.10;2.40;;;17.90;99.90;;;;;;4943867;28;20366;-86
2023/08/24 03:45:19;;;;;;;4.65;2.50;;;17.80;99.90;;;;;;4941121;29;20046;-85
2023/08/24 03:47:45;;;;;;;3.60;2.50;;;17.80;99.90;;;;;;4941875;28;20066;-86
2023/08/24 03:50:10;;;;;;;5.97;2.25;;;17.80;99.90;;;;;;4942287;29;20031;-86
2023/08/24 03:52:36;;;;;;;8.80;2.55;;;17.70;99.90;;;;;;4946266;28;20035;-86
2023/08/24 03:55:06;;;;;;;11.48;3.25;;;17.70;99.90;;;;;;4938547;29;20023;-85
2023/08/24 03:57:32;;;;;;;3.10;2.30;;;17.70;99.90;;;;;;4942559;28;20028;-84
2023/08/24 03:59:58;;;;;;;9.75;2.60;;;17.60;99.90;;;;;;4947249;28;20032;-86
2023/08/24 04:02:23;;;;;;;9.60;3.20;;;17.60;99.90;;;;;;4943674;29;20069;-85
2023/08/24 04:04:50;;;;;;;5.95;2.65;;;17.50;99.90;;;;;;4950702;28;20102;-86
2023/08/24 04:07:16;;;;;;;8.93;2.58;;;17.60;99.90;;;;;;4942200;28;20036;-87
2023/08/24 04:09:42;;;;;;;5.68;2.65;;;17.70;99.90;;;;;;4943874;28;20030;-85
2023/08/24 04:12:08;;;;;;;5.57;2.10;;;17.80;99.90;;;;;;4946670;28;20031;-86
2023/08/24 04:14:34;;;;;;;8.48;2.72;;;17.80;99.90;;;;;;4937130;29;20531;-86
2023/08/24 04:17:00;;;;;;;10.05;2.80;;;17.90;99.90;;;;;;4942627;28;20031;-85
2023/08/24 04:19:26;;;;;;;13.05;3.55;;;18.10;99.90;;;;;;4945878;28;20039;-89
2023/08/24 04:21:54;;;;;;;7.90;2.90;;;18.30;99.90;;;;;;4942358;28;20055;-86
2023/08/24 04:24:20;;;;;;;7.45;2.85;;;18.40;99.90;;;;;;4940058;28;20441;-85
2023/08/24 04:26:46;;;;;;;8.57;3.35;;;18.50;99.90;;;;;;4946868;28;20050;-86
2023/08/24 04:29:11;;;;;;;5.50;2.42;;;18.60;99.90;;;;;;4939841;29;20118;-84
2023/08/24 04:31:40;;;;;;;10.70;2.67;;;18.70;99.90;;;;;;4948332;28;20078;-85
2023/08/24 04:34:11;;;;;;;10.50;2.72;;;18.70;99.90;;;;;;4945651;28;20043;-87
2023/08/24 04:36:36;;;;;;;9.43;3.10;;;18.80;99.90;;;;;;4944729;28;20032;-88
2023/08/24 04:39:02;;;;;;;10.15;3.17;;;18.90;99.90;;;;;;4945003;28;20046;-86
2023/08/24 04:41:30;;;;;;;9.27;2.75;;;19.00;99.90;;;;;;4937686;28;20051;-87
2023/08/24 04:43:56;;;;;;;5.72;2.60;;;19.00;99.90;;;;;;4951496;28;20477;-90
2023/08/24 04:46:22;;;;;;;7.25;2.47;;;19.00;99.90;;;;;;4948928;28;20059;-86
2023/08/24 04:48:47;;;;;;;12.82;2.92;;;19.10;99.90;;;;;;4939076;29;20051;-86
2023/08/24 04:51:13;;;;;;;9.98;2.70;;;19.10;99.90;;;;;;4948327;28;20027;-88
2023/08/24 04:53:39;;;;;;;4.85;2.60;;;19.20;99.90;;;;;;4942357;28;20055;-85
2023/08/24 04:56:04;;;;;;;7.20;2.90;;;19.20;99.90;;;;;;4946661;28;20370;-85
2023/08/24 04:58:30;;;;;;;3.45;2.17;;;19.20;99.90;;;;;;4937242;29;20466;-88
2023/08/24 05:00:56;;;;;;;5.40;2.42;;;19.20;99.90;;;;;;4945253;29;20078;-86
2023/08/24 05:03:21;;;;;;;11.13;3.00;;;19.30;99.90;;;;;;4940168;29;20032;-83
2023/08/24 05:05:47;;;;;;;7.13;2.20;;;19.30;99.90;;;;;;4940729;29;20158;-86
2023/08/24 05:08:13;;;;;;;5.93;2.65;;;19.30;99.90;;;;;;4945049;28;20039;-84
2023/08/24 05:10:38;;;;;;;8.32;2.58;;;19.30;99.90;;;;;;4940880;29;20031;-87
2023/08/24 05:13:07;;;;;;;6.10;2.03;;;19.40;99.90;;;;;;4944931;28;20026;-84
2023/08/24 05:15:33;;;;;;;9.88;2.50;;;19.30;99.90;;;;;;4946142;28;20028;-87
2023/08/24 05:17:59;;;;;;;10.55;2.92;;;19.40;99.90;;;;;;4947996;28;20042;-85
2023/08/24 05:20:25;;;;;;;7.85;2.35;;;19.40;99.90;;;;;;4944184;28;20489;-87
2023/08/24 05:22:55;;;;;;;5.80;2.40;;;19.50;99.90;;;;;;4944348;29;20034;-85
2023/08/24 05:25:21;;;;;;;5.80;2.20;;;19.40;99.90;;;;;;4938205;29;20041;-85
2023/08/24 05:27:47;;;;;;;5.82;2.17;;;19.40;99.90;;;;;;4946651;28;20441;-87
2023/08/24 05:30:13;;;;;;;4.45;2.10;;;19.40;99.90;;;;;;4942578;28;20039;-85
2023/08/24 05:32:39;;;;;;;3.40;1.80;;;19.50;99.90;;;;;;4940901;28;20031;-86
2023/08/24 05:35:08;;;;;;;4.82;2.20;;;19.50;99.90;;;;;;4938891;28;20023;-85
2023/08/24 05:37:34;;;;;;;3.08;2.08;;;19.50;99.90;;;;;;4942828;28;20556;-86
2023/08/24 05:40:00;;;;;;;3.60;1.90;;;19.50;99.90;;;;;;4947030;28;20280;-87
2023/08/24 05:42:26;;;;;;;4.50;2.10;;;19.50;99.90;;;;;;4941611;29;20039;-87
2023/08/24 05:44:52;;;;;;;6.63;1.90;;;19.50;99.90;;;;;;4944931;29;20043;-87
2023/08/24 05:47:18;;;;;;;8.65;2.15;;;19.60;99.90;;;;;;4936217;28;20536;-86
2023/08/24 05:49:43;;;;;;;9.18;2.58;;;19.60;99.90;;;;;;4944092;28;20084;-86
2023/08/24 05:52:09;;;;;;;2.05;1.80;;;19.70;99.90;;;;;;4937014;28;20039;-86
2023/08/24 05:54:36;;;;;;;5.78;2.63;;;19.60;99.90;;;;;;4939751;28;20051;-86
2023/08/24 05:57:03;;;;;;;6.53;2.65;;;19.70;99.90;;;;;;4940372;28;20432;-85
2023/08/24 05:59:29;;;;;;;7.57;2.28;;;19.70;99.90;;;;;;4937875;28;20259;-86
2023/08/24 06:01:55;;;;;;;4.55;1.98;;;19.70;99.90;;;;;;4939874;28;20027;-85
2023/08/24 06:04:21;;;;;;;8.48;2.80;;;19.70;99.90;;;;;;4935115;28;20101;-85
2023/08/24 06:06:46;;;;;;;4.55;2.53;;;19.70;99.90;;;;;;4939531;28;20058;-85
2023/08/24 06:09:12;;;;;;;4.80;1.92;;;19.70;99.90;;;;;;4937543;28;20034;-85
2023/08/24 06:11:38;;;;;;;3.67;2.17;;;19.70;99.90;;;;;;4944404;28;20031;-85
2023/08/24 06:14:04;;;;;;;4.80;2.35;;;19.70;99.90;;;;;;4944319;28;20058;-86
2023/08/24 06:16:30;;;;;;;2.35;1.45;;;19.70;99.90;;;;;;4938425;28;20048;-86
2023/08/24 06:18:56;;;;;;;5.30;2.13;;;19.60;99.90;;;;;;4944152;28;20039;-86
2023/08/24 06:21:24;;;;;;;6.35;2.38;;;19.60;99.90;;;;;;4936681;28;20036;-85
2023/08/24 06:23:50;;;;;;;8.52;2.60;;;19.60;99.90;;;;;;4939270;28;20050;-85
2023/08/24 06:26:17;;;;;;;4.40;2.38;;;19.60;99.90;;;;;;4934382;28;20029;-85
2023/08/24 06:28:43;;;;;;;5.88;2.67;;;19.60;99.90;;;;;;4940455;28;20498;-85
2023/08/24 06:31:08;;;;;;;7.53;2.10;;;19.70;99.90;;;;;;4939284;28;20034;-86
2023/08/24 06:33:35;;;;;;;4.30;2.42;;;19.70;99.90;;;;;;4936945;28;20023;-86
2023/08/24 06:36:02;;;;;;;6.90;2.40;;;19.60;99.90;;;;;;4933615;28;20061;-85
2023/08/24 06:38:29;;;;;;;8.13;3.05;;;19.60;99.90;;;;;;4940384;28;20501;-85
2023/08/24 06:40:55;;;;;;;4.75;2.58;;;19.70;99.90;;;;;;4930189;28;20564;-84
2023/08/24 06:43:20;;;;;;;5.68;2.90;;;19.70;99.90;;;;;;4932043;28;20027;-85
2023/08/24 06:45:46;;;;;;;10.95;3.00;;;19.70;99.90;;;;;;4943099;28;20031;-86
2023/08/24 06:48:11;;;;;;;3.65;2.50;;;19.80;99.90;;;;;;4945751;28;20028;-85
2023/08/24 06:50:37;;;;;;;5.10;2.60;;;19.80;99.90;;;;;;4937250;29;20016;-86
2023/08/24 06:53:04;;;;;;;8.52;3.00;;;19.90;99.90;;;;;;4940442;28;20031;-86
2023/08/24 06:55:29;;;;;;;5.60;3.22;;;20.00;99.90;;;;;;4927859;29;20027;-85
2023/08/24 06:57:55;;;;;;;6.25;2.58;;;20.00;99.90;;;;;;4938717;28;20034;-86
2023/08/24 07:00:21;;;;;;;6.88;2.85;;;20.10;99.90;;;;;;4941238;28;20050;-86
2023/08/24 07:02:47;;;;;;;5.88;2.50;;;20.10;99.90;;;;;;4944750;28;20909;-85
2023/08/24 07:05:14;;;;;;;6.93;2.40;;;20.10;99.90;;;;;;4944181;28;20035;-85
2023/08/24 07:07:44;;;;;;;6.30;2.83;;;20.20;99.90;;;;;;4929062;28;20042;-85
2023/08/24 07:10:10;;;;;;;4.75;2.72;;;20.20;99.90;;;;;;4935690;28;20027;-85
2023/08/24 07:12:35;;;;;;;6.68;2.45;;;20.20;99.90;;;;;;4936206;28;20078;-86
2023/08/24 07:15:01;;;;;;;2.60;1.75;;;20.20;99.90;;;;;;4935917;29;20023;-86
2023/08/24 07:17:27;;;;;;;4.93;2.17;;;20.20;99.90;;;;;;4939241;28;20351;-86
2023/08/24 07:19:53;;;;;;;4.68;2.17;;;20.20;99.90;;;;;;4929950;29;20035;-85
2023/08/24 07:22:19;;;;;;;4.63;2.50;;;20.30;99.90;;;;;;4943262;28;20027;-85
2023/08/24 07:24:45;;;;;;;4.80;2.28;;;20.30;99.90;;;;;;4935915;28;20043;-85
2023/08/24 07:27:11;;;;;;;2.83;2.35;;;20.20;99.90;;;;;;4938313;28;20085;-85
2023/08/24 07:29:37;;;;;;;7.05;2.75;;;20.20;99.90;;;;;;4941896;28;20058;-86
2023/08/24 07:32:03;;;;;;;6.43;2.22;;;20.20;99.90;;;;;;4945504;29;20083;-86
2023/08/24 07:34:29;;;;;;;4.93;2.70;;;20.20;99.90;;;;;;4937757;28;20031;-85
2023/08/24 07:36:55;;;;;;;5.95;2.50;;;20.20;99.90;;;;;;4945325;28;20058;-86
2023/08/24 07:39:21;;;;;;;3.70;1.77;;;20.20;99.90;;;;;;4939464;28;20039;-86
2023/08/24 07:41:46;;;;;;;6.40;2.35;;;20.20;99.90;;;;;;4938158;28;20522;-86
2023/08/24 07:44:12;;;;;;;4.43;2.40;;;20.20;99.90;;;;;;4935876;28;20027;-85
2023/08/24 07:46:41;;;;;;;11.68;2.40;;;20.20;99.90;;;;;;4938940;29;20047;-87
2023/08/24 07:49:07;;;;;;;3.80;1.73;;;20.20;99.90;;;;;;4939294;29;20512;-85
2023/08/24 07:51:36;;;;;;;4.80;2.30;;;20.20;99.90;;;;;;4945745;29;20023;-85
2023/08/24 07:54:17;;;;;;;5.03;1.80;;;20.20;99.90;;;;;;4939567;28;20049;-87
2023/08/24 07:56:42;;;;;;;3.00;2.20;;;20.30;99.90;;;;;;4937479;28;20049;-85
2023/08/24 07:59:20;;;;;;;8.50;2.90;;;20.30;99.90;;;;;;4941148;28;20035;-86
2023/08/24 08:01:46;;;;;;;5.20;1.90;;;20.30;99.90;;;;;;4938585;28;20320;-86
2023/08/24 08:04:11;;;;;;;5.47;1.98;;;20.30;99.90;;;;;;4937876;29;20035;-86
2023/08/24 08:06:37;;;;;;;10.60;2.30;;;20.30;99.90;;;;;;4942871;28;20062;-87
2023/08/24 08:09:02;;;;;;;22.17;3.97;;;20.30;99.90;;;;;;4935474;28;20038;-87
2023/08/24 08:11:28;;;;;;;12.50;3.28;;;20.30;99.90;;;;;;4947577;28;20031;-87
2023/08/24 08:13:54;;;;;;;12.65;2.63;;;20.30;99.90;;;;;;4946232;28;20031;-86
2023/08/24 08:16:19;;;;;;;14.18;2.65;;;20.30;99.90;;;;;;4944320;28;20020;-86
2023/08/24 08:18:45;;;;;;;7.22;2.90;;;20.40;99.90;;;;;;4944166;28;20395;-86
2023/08/24 08:21:18;;;;;;;9.68;3.00;;;20.40;99.90;;;;;;4943838;28;20031;-87
2023/08/24 08:23:45;;;;;;;4.13;2.60;;;20.40;99.90;;;;;;4941690;29;20032;-86
2023/08/24 08:26:13;;;;;;;2.28;2.05;;;20.40;99.90;;;;;;4943931;29;20039;-85
2023/08/24 08:28:39;;;;;;;7.25;2.60;;;20.50;99.90;;;;;;4939155;28;20115;-86
2023/08/24 08:31:05;;;;;;;10.13;2.30;;;20.50;99.90;;;;;;4941928;29;20031;-86
2023/08/24 08:33:31;;;;;;;6.30;2.72;;;20.50;99.90;;;;;;4946127;28;20031;-86
2023/08/24 08:35:57;;;;;;;9.10;2.85;;;20.60;99.90;;;;;;4947653;28;20079;-85
2023/08/24 08:38:25;;;;;;;8.32;3.50;;;20.60;99.90;;;;;;4940473;29;20046;-85
2023/08/24 08:40:55;;;;;;;6.75;2.88;;;20.60;99.90;;;;;;4934213;28;20047;-85
2023/08/24 08:43:22;;;;;;;7.97;2.83;;;20.60;99.90;;;;;;4936148;28;20031;-86
2023/08/24 08:45:51;;;;;;;5.97;2.78;;;20.60;99.90;;;;;;4944883;29;20035;-86
2023/08/24 08:48:20;;;;;;;6.03;2.90;;;20.60;99.90;;;;;;4927344;29;20032;-86
2023/08/24 08:50:51;;;;;;;6.13;2.88;;;20.70;99.90;;;;;;4924643;29;20040;-85
2023/08/24 08:53:21;;;;;;;7.97;2.85;;;20.70;99.90;;;;;;4942706;29;20027;-85
2023/08/24 08:55:48;;;;;;;5.78;3.47;;;20.70;99.90;;;;;;4929613;28;20394;-86
2023/08/24 08:58:14;;;;;;;9.38;3.00;;;20.80;99.90;;;;;;4939707;28;20035;-86
2023/08/24 09:00:40;;;;;;;4.35;3.20;;;20.80;99.90;;;;;;4946637;28;20027;-86
2023/08/24 09:03:07;;;;;;;10.07;3.97;;;20.90;99.90;;;;;;4943252;29;20036;-85
2023/08/24 09:05:32;;;;;;;16.75;4.82;;;20.90;99.90;;;;;;4933647;29;20633;-85
2023/08/24 09:07:59;;;;;;;6.82;3.63;;;21.00;99.90;;;;;;4946332;28;20482;-85
2023/08/24 09:10:25;;;;;;;24.40;4.15;;;21.10;99.90;;;;;;4949001;28;20027;-84
2023/08/24 09:12:51;;;;;;;13.43;3.80;;;21.20;99.90;;;;;;4944203;28;20097;-86
2023/08/24 09:15:26;;;;;;;9.93;3.53;;;21.30;99.90;;;;;;4946442;28;20019;-86
2023/08/24 09:17:56;;;;;;;4.65;2.92;;;21.40;99.90;;;;;;4935737;28;20400;-84
2023/08/24 09:20:21;;;;;;;10.02;2.97;;;21.50;99.90;;;;;;4944295;28;20051;-85
2023/08/24 09:22:47;;;;;;;8.52;3.03;;;21.70;99.90;;;;;;4937101;29;20057;-86
2023/08/24 09:25:13;;;;;;;4.60;3.00;;;21.80;99.90;;;;;;4941654;29;20036;-85
2023/08/24 09:27:38;;;;;;;5.72;3.60;;;21.80;99.90;;;;;;4945194;29;20027;-85
2023/08/24 09:30:07;;;;;;;8.15;4.15;;;21.90;99.90;;;;;;4952460;28;20392;-86
2023/08/24 09:32:33;;;;;;;6.90;4.55;;;21.90;99.90;;;;;;4946975;28;20027;-85
2023/08/24 09:35:07;;;;;;;10.65;3.97;;;21.90;99.90;;;;;;4938301;29;20027;-85
2023/08/24 09:37:35;;;;;;;6.80;3.83;;;21.90;99.90;;;;;;4945959;28;20037;-85
2023/08/24 09:40:07;;;;;;;11.00;3.25;;;22.00;99.90;;;;;;4949151;28;20118;-85
2023/08/24 09:42:41;;;;;;;7.05;3.13;;;21.90;99.90;;;;;;4947375;29;20035;-84
2023/08/24 09:45:09;;;;;;;9.20;3.25;;;22.00;99.90;;;;;;4932297;28;20031;-85
2023/08/24 09:47:36;;;;;;;5.38;3.08;;;22.00;99.90;;;;;;4949808;28;20178;-85
2023/08/24 09:50:02;;;;;;;5.20;3.53;;;22.00;99.90;;;;;;4942557;28;20031;-85
2023/08/24 09:52:32;;;;;;;19.83;3.92;;;22.00;99.90;;;;;;4938952;28;20034;-85
2023/08/24 09:55:08;;;;;;;5.93;3.22;;;22.20;99.90;;;;;;4946306;29;20027;-85
2023/08/24 09:57:37;;;;;;;4.10;2.88;;;22.20;99.90;;;;;;4940380;28;20037;-85
2023/08/24 10:00:10;;;;;;;11.57;3.05;;;22.30;99.90;;;;;;4941626;29;20023;-84
2023/08/24 10:02:41;;;;;;;4.22;2.90;;;22.30;99.90;;;;;;4933316;28;20036;-85
2023/08/24 10:05:08;;;;;;;3.72;3.00;;;22.30;99.90;;;;;;4944311;28;20594;-86
2023/08/24 10:07:35;;;;;;;4.32;3.10;;;22.40;99.90;;;;;;4937725;28;20039;-86
2023/08/24 10:10:07;;;;;;;4.95;3.15;;;22.40;99.90;;;;;;4940420;29;20028;-86
2023/08/24 10:12:41;;;;;;;7.95;3.55;;;22.40;99.90;;;;;;4938535;29;20028;-85
2023/08/24 10:15:08;;;;;;;10.13;3.55;;;22.50;99.90;;;;;;4944445;28;20091;-85
2023/08/24 10:17:36;;;;;;;6.43;3.38;;;22.50;99.90;;;;;;4943911;29;20428;-85
2023/08/24 10:20:05;;;;;;;5.05;3.10;;;22.50;99.90;;;;;;4936864;28;20027;-85
2023/08/24 10:22:33;;;;;;;4.03;3.10;;;22.50;99.90;;;;;;4937981;29;20054;-85
2023/08/24 10:24:59;;;;;;;4.28;3.05;;;22.50;99.90;;;;;;4936082;29;20441;-85
2023/08/24 10:27:27;;;;;;;8.55;3.55;;;22.50;99.90;;;;;;4948078;28;20027;-85
2023/08/24 10:29:53;;;;;;;5.80;3.38;;;22.60;99.90;;;;;;4951383;28;20035;-86
2023/08/24 10:32:23;;;;;;;7.75;3.15;;;22.70;99.90;;;;;;4952357;29;20245;-85
2023/08/24 10:34:49;;;;;;;7.82;3.22;;;22.70;99.90;;;;;;4943197;29;20039;-84
2023/08/24 10:37:15;;;;;;;5.40;3.22;;;22.80;99.90;;;;;;4940239;28;20047;-85
2023/08/24 10:39:45;;;;;;;8.27;3.08;;;22.80;99.90;;;;;;4948040;28;20063;-84
2023/08/24 10:42:13;;;;;;;7.03;2.75;;;22.90;99.90;;;;;;4939008;28;20047;-85
2023/08/24 10:44:40;;;;;;;6.75;2.90;;;22.90;99.90;;;;;;4941000;29;20042;-86
2023/08/24 10:47:14;;;;;;;7.75;2.90;;;22.90;99.90;;;;;;4946978;28;20417;-86
2023/08/24 10:49:41;;;;;;;9.80;3.10;;;22.90;99.90;;;;;;4948343;29;20082;-85
2023/08/24 10:52:23;;;;;;;6.32;3.03;;;22.90;99.90;;;;;;4941490;28;20670;-86
2023/08/24 10:54:51;;;;;;;4.85;2.92;;;22.90;99.90;;;;;;4947879;28;20019;-85
2023/08/24 10:57:21;;;;;;;13.70;2.90;;;23.00;99.90;;;;;;4942995;29;20082;-85
2023/08/24 11:00:09;;;;;;;9.73;2.80;;;23.10;99.90;;;;;;4947989;28;20433;-86
2023/08/24 11:02:46;;;;;;;6.38;2.60;;;23.10;99.90;;;;;;4944899;29;20122;-85
2023/08/24 11:05:17;;;;;;;4.70;3.10;;;23.10;99.90;;;;;;4942294;28;20046;-84
2023/08/24 11:07:50;;;;;;;6.05;3.03;;;23.20;99.90;;;;;;4943780;28;20027;-86
2023/08/24 11:10:16;;;;;;;7.05;3.00;;;23.20;99.90;;;;;;4954565;28;20035;-86
2023/08/24 11:13:04;;;;;;;7.43;2.92;;;23.20;99.90;;;;;;4950896;28;20070;-85
2023/08/24 11:15:57;;;;;;;7.82;3.47;;;23.20;99.90;;;;;;4940108;29;20035;-86
2023/08/24 11:18:25;;;;;;;11.98;3.40;;;23.20;99.90;;;;;;4933422;29;20046;-84
2023/08/24 11:21:00;;;;;;;11.73;3.33;;;23.30;99.90;;;;;;4948505;28;20556;-84
2023/08/24 11:23:26;;;;;;;3.47;2.85;;;23.30;99.90;;;;;;4950146;28;20031;-85
2023/08/24 11:25:57;;;;;;;6.32;2.78;;;23.30;99.90;;;;;;4941546;28;20454;-86
2023/08/24 11:28:24;;;;;;;8.63;3.10;;;23.40;99.90;;;;;;4949523;28;20074;-87
2023/08/24 11:30:53;;;;;;;10.98;3.38;;;23.50;99.90;;;;;;4934390;28;20483;-88
2023/08/24 11:33:34;;;;;;;6.78;2.88;;;23.60;99.90;;;;;;4948522;28;20041;-86
2023/08/24 11:36:01;;;;;;;7.15;3.15;;;23.60;99.90;;;;;;4942779;28;20039;-85
2023/08/24 11:38:40;;;;;;;11.70;2.90;;;23.70;99.90;;;;;;4939191;28;20051;-85
2023/08/24 11:41:16;;;;;;;52.63;4.95;;;23.70;99.90;;;;;;4940764;28;20058;-88
2023/08/24 11:43:43;;;;;;;25.23;4.00;;;23.80;99.90;;;;;;4937738;29;20027;-86
2023/08/24 11:46:08;;;;;;;9.85;2.92;;;23.80;99.90;;;;;;4948793;28;20023;-87
2023/08/24 11:48:36;;;;;;;8.10;3.13;;;23.80;99.90;;;;;;4942745;28;20066;-87
2023/08/24 11:51:02;;;;;;;6.90;2.97;;;23.90;99.90;;;;;;4950377;28;20027;-88
2023/08/24 11:53:31;;;;;;;9.63;3.22;;;23.90;99.90;;;;;;4932398;29;20037;-88
2023/08/24 11:55:57;;;;;;;6.72;2.58;;;24.00;99.90;;;;;;4947244;28;20079;-85
2023/08/24 11:58:23;;;;;;;6.03;2.63;;;24.00;99.90;;;;;;4948977;29;20078;-87
2023/08/24 12:00:49;;;;;;;7.75;2.38;;;24.00;99.90;;;;;;4945893;29;20034;-87
2023/08/24 12:03:14;;;;;;;10.57;2.55;;;24.00;99.90;;;;;;4944076;28;20042;-86
2023/08/24 12:05:40;;;;;;;4.97;2.92;;;24.00;99.90;;;;;;4943274;29;20178;-87
2023/08/24 12:08:06;;;;;;;6.38;2.90;;;24.10;99.90;;;;;;4943171;29;20377;-87
2023/08/24 12:10:35;;;;;;;6.45;3.20;;;24.10;99.90;;;;;;4943393;29;20066;-86
2023/08/24 12:13:06;;;;;;;7.10;2.90;;;24.10;99.90;;;;;;4946334;28;20437;-86
2023/08/24 12:15:35;;;;;;;6.13;2.50;;;24.10;99.90;;;;;;4942510;29;20031;-87
2023/08/24 12:18:10;;;;;;;12.93;2.88;;;24.10;99.90;;;;;;4948754;29;20043;-88
2023/08/24 12:20:36;;;;;;;7.95;2.90;;;24.20;99.90;;;;;;4948530;28;20057;-87
2023/08/24 12:23:02;;;;;;;17.90;3.25;;;24.20;99.90;;;;;;4944587;28;20079;-87
2023/08/24 12:25:28;;;;;;;17.17;3.58;;;24.30;99.90;;;;;;4949261;28;20031;-87
2023/08/24 12:28:15;;;;;;;25.35;4.00;;;24.40;99.90;;;;;;4944729;29;20035;-87
2023/08/24 12:30:47;;;;;;;6.00;2.42;;;24.40;99.90;;;;;;4948504;29;20039;-87
2023/08/24 12:33:33;;;;;;;36.33;3.92;;;24.50;99.90;;;;;;4942039;28;20123;-86
2023/08/24 12:35:59;;;;;;;8.25;2.75;;;24.50;99.90;;;;;;4952430;28;20094;-86
2023/08/24 12:38:27;;;;;;;156.95;11.88;;;24.50;99.90;;;;;;4947367;29;20476;-85
2023/08/24 12:40:53;;;;;;;164.57;13.95;;;24.60;99.90;;;;;;4945605;28;20436;-87
2023/08/24 12:43:19;;;;;;;27.92;4.43;;;24.60;99.90;;;;;;4927038;29;20032;-87
2023/08/24 12:45:45;;;;;;;18.10;3.33;;;24.60;99.90;;;;;;4939011;28;20047;-86
2023/08/24 12:48:11;;;;;;;8.85;2.95;;;24.70;99.90;;;;;;4939578;29;20036;-86